sensor_id;sensor_type;location;lat;lon;timestamp;P1;durP1;ratioP1;P2;durP2;ratioP2
9138;SDS011;4604;48.616;9.548;2022-07-04T00:00:42;1.85;;;1.73;;
9138;SDS011;4604;48.616;9.548;2022-07-04T00:03:09;2.17;;;1.70;;
9138;SDS011;4604;48.616;9.548;2022-07-04T00:05:36;1.85;;;1.73;;
9138;SDS011;4604;48.616;9.548;2022-07-04T00:08:03;2.78;;;1.90;;
9138;SDS011;4604;48.616;9.548;2022-07-04T00:10:30;1.83;;;1.58;;
9138;SDS011;4604;48.616;9.548;2022-07-04T00:12:57;1.77;;;1.67;;
9138;SDS011;4604;48.616;9.548;2022-07-04T00:15:25;2.65;;;1.95;;
9138;SDS011;4604;48.616;9.548;2022-07-04T00:17:52;2.03;;;1.90;;
9138;SDS011;4604;48.616;9.548;2022-07-04T00:20:19;3.58;;;2.13;;
9138;SDS011;4604;48.616;9.548;2022-07-04T00:22:46;6.25;;;2.10;;
9138;SDS011;4604;48.616;9.548;2022-07-04T00:25:13;2.00;;;1.70;;
9138;SDS011;4604;48.616;9.548;2022-07-04T00:27:39;2.58;;;2.10;;
9138;SDS011;4604;48.616;9.548;2022-07-04T00:30:07;1.92;;;1.80;;
9138;SDS011;4604;48.616;9.548;2022-07-04T00:32:35;2.10;;;1.90;;
9138;SDS011;4604;48.616;9.548;2022-07-04T00:35:02;2.13;;;1.92;;
9138;SDS011;4604;48.616;9.548;2022-07-04T00:37:29;3.17;;;2.38;;
9138;SDS011;4604;48.616;9.548;2022-07-04T00:39:56;2.55;;;2.13;;
9138;SDS011;4604;48.616;9.548;2022-07-04T00:42:23;2.38;;;2.17;;
9138;SDS011;4604;48.616;9.548;2022-07-04T00:44:50;3.30;;;2.20;;
9138;SDS011;4604;48.616;9.548;2022-07-04T00:47:16;3.40;;;1.95;;
9138;SDS011;4604;48.616;9.548;2022-07-04T00:49:45;2.33;;;2.13;;
9138;SDS011;4604;48.616;9.548;2022-07-04T00:52:11;2.20;;;2.00;;
9138;SDS011;4604;48.616;9.548;2022-07-04T00:54:39;2.53;;;2.00;;
9138;SDS011;4604;48.616;9.548;2022-07-04T00:57:06;1.90;;;1.80;;
9138;SDS011;4604;48.616;9.548;2022-07-04T00:59:33;2.05;;;1.80;;
9138;SDS011;4604;48.616;9.548;2022-07-04T01:02:00;2.10;;;1.90;;
9138;SDS011;4604;48.616;9.548;2022-07-04T01:04:27;2.47;;;2.22;;
9138;SDS011;4604;48.616;9.548;2022-07-04T01:06:55;2.78;;;1.92;;
9138;SDS011;4604;48.616;9.548;2022-07-04T01:09:22;2.45;;;1.85;;
9138;SDS011;4604;48.616;9.548;2022-07-04T01:11:49;2.15;;;1.95;;
9138;SDS011;4604;48.616;9.548;2022-07-04T01:14:16;2.55;;;2.00;;
9138;SDS011;4604;48.616;9.548;2022-07-04T01:16:43;2.35;;;2.15;;
9138;SDS011;4604;48.616;9.548;2022-07-04T01:19:10;3.67;;;2.10;;
9138;SDS011;4604;48.616;9.548;2022-07-04T01:21:38;2.72;;;2.08;;
9138;SDS011;4604;48.616;9.548;2022-07-04T01:24:05;2.65;;;1.90;;
9138;SDS011;4604;48.616;9.548;2022-07-04T01:26:32;2.35;;;2.15;;
9138;SDS011;4604;48.616;9.548;2022-07-04T01:28:59;2.80;;;2.20;;
9138;SDS011;4604;48.616;9.548;2022-07-04T01:31:26;3.58;;;1.90;;
9138;SDS011;4604;48.616;9.548;2022-07-04T01:33:52;2.63;;;2.15;;
9138;SDS011;4604;48.616;9.548;2022-07-04T01:36:19;3.10;;;1.95;;
9138;SDS011;4604;48.616;9.548;2022-07-04T01:38:47;2.30;;;2.10;;
9138;SDS011;4604;48.616;9.548;2022-07-04T01:41:14;2.25;;;2.00;;
9138;SDS011;4604;48.616;9.548;2022-07-04T01:43:41;2.45;;;2.17;;
9138;SDS011;4604;48.616;9.548;2022-07-04T01:46:08;2.15;;;1.90;;
9138;SDS011;4604;48.616;9.548;2022-07-04T01:48:34;3.40;;;2.20;;
9138;SDS011;4604;48.616;9.548;2022-07-04T01:51:01;1.92;;;1.83;;
9138;SDS011;4604;48.616;9.548;2022-07-04T01:53:28;2.42;;;2.22;;
9138;SDS011;4604;48.616;9.548;2022-07-04T01:55:56;2.63;;;2.00;;
9138;SDS011;4604;48.616;9.548;2022-07-04T01:58:23;3.97;;;2.45;;
9138;SDS011;4604;48.616;9.548;2022-07-04T02:00:49;4.85;;;2.33;;
9138;SDS011;4604;48.616;9.548;2022-07-04T02:03:33;3.25;;;2.53;;
9138;SDS011;4604;48.616;9.548;2022-07-04T02:06:00;3.55;;;2.40;;
9138;SDS011;4604;48.616;9.548;2022-07-04T02:08:27;2.35;;;2.15;;
9138;SDS011;4604;48.616;9.548;2022-07-04T02:11:15;2.40;;;2.20;;
9138;SDS011;4604;48.616;9.548;2022-07-04T02:13:42;3.40;;;2.20;;
9138;SDS011;4604;48.616;9.548;2022-07-04T02:16:08;2.38;;;2.15;;
9138;SDS011;4604;48.616;9.548;2022-07-04T02:18:35;3.53;;;2.50;;
9138;SDS011;4604;48.616;9.548;2022-07-04T02:21:03;3.40;;;2.30;;
9138;SDS011;4604;48.616;9.548;2022-07-04T02:23:30;4.05;;;2.45;;
9138;SDS011;4604;48.616;9.548;2022-07-04T02:25:57;2.97;;;2.42;;
9138;SDS011;4604;48.616;9.548;2022-07-04T02:28:25;2.40;;;2.20;;
9138;SDS011;4604;48.616;9.548;2022-07-04T02:30:51;4.38;;;2.40;;
9138;SDS011;4604;48.616;9.548;2022-07-04T02:33:18;2.72;;;2.45;;
9138;SDS011;4604;48.616;9.548;2022-07-04T02:35:45;7.25;;;2.70;;
9138;SDS011;4604;48.616;9.548;2022-07-04T02:38:12;3.45;;;2.47;;
9138;SDS011;4604;48.616;9.548;2022-07-04T02:40:38;3.08;;;2.38;;
9138;SDS011;4604;48.616;9.548;2022-07-04T02:43:05;2.53;;;2.33;;
9138;SDS011;4604;48.616;9.548;2022-07-04T02:45:33;2.88;;;2.58;;
9138;SDS011;4604;48.616;9.548;2022-07-04T02:48:00;5.53;;;2.58;;
9138;SDS011;4604;48.616;9.548;2022-07-04T02:50:27;4.32;;;2.53;;
9138;SDS011;4604;48.616;9.548;2022-07-04T02:52:54;3.67;;;2.67;;
9138;SDS011;4604;48.616;9.548;2022-07-04T02:55:21;2.42;;;2.22;;
9138;SDS011;4604;48.616;9.548;2022-07-04T02:57:48;6.28;;;2.65;;
9138;SDS011;4604;48.616;9.548;2022-07-04T03:00:14;3.38;;;2.42;;
9138;SDS011;4604;48.616;9.548;2022-07-04T03:02:43;5.43;;;2.83;;
9138;SDS011;4604;48.616;9.548;2022-07-04T03:05:09;2.50;;;2.30;;
9138;SDS011;4604;48.616;9.548;2022-07-04T03:07:36;2.40;;;2.20;;
9138;SDS011;4604;48.616;9.548;2022-07-04T03:10:03;3.78;;;2.50;;
9138;SDS011;4604;48.616;9.548;2022-07-04T03:12:30;2.63;;;2.42;;
9138;SDS011;4604;48.616;9.548;2022-07-04T03:14:57;3.58;;;2.40;;
9138;SDS011;4604;48.616;9.548;2022-07-04T03:17:24;3.00;;;2.75;;
9138;SDS011;4604;48.616;9.548;2022-07-04T03:19:52;3.78;;;2.53;;
9138;SDS011;4604;48.616;9.548;2022-07-04T03:22:19;4.82;;;2.50;;
9138;SDS011;4604;48.616;9.548;2022-07-04T03:24:45;5.10;;;2.80;;
9138;SDS011;4604;48.616;9.548;2022-07-04T03:27:12;2.50;;;2.30;;
9138;SDS011;4604;48.616;9.548;2022-07-04T03:29:39;2.72;;;2.47;;
9138;SDS011;4604;48.616;9.548;2022-07-04T03:32:06;4.82;;;2.42;;
9138;SDS011;4604;48.616;9.548;2022-07-04T03:34:34;7.88;;;2.90;;
9138;SDS011;4604;48.616;9.548;2022-07-04T03:37:02;3.10;;;2.50;;
9138;SDS011;4604;48.616;9.548;2022-07-04T03:39:29;3.63;;;2.90;;
9138;SDS011;4604;48.616;9.548;2022-07-04T03:41:56;3.33;;;3.03;;
9138;SDS011;4604;48.616;9.548;2022-07-04T03:44:23;3.08;;;2.78;;
9138;SDS011;4604;48.616;9.548;2022-07-04T03:46:49;3.40;;;2.40;;
9138;SDS011;4604;48.616;9.548;2022-07-04T03:49:16;3.90;;;2.72;;
9138;SDS011;4604;48.616;9.548;2022-07-04T03:51:43;6.60;;;3.00;;
9138;SDS011;4604;48.616;9.548;2022-07-04T03:54:11;2.75;;;2.53;;
9138;SDS011;4604;48.616;9.548;2022-07-04T03:56:38;6.88;;;2.90;;
9138;SDS011;4604;48.616;9.548;2022-07-04T03:59:04;3.88;;;2.92;;
9138;SDS011;4604;48.616;9.548;2022-07-04T04:01:31;3.03;;;2.45;;
9138;SDS011;4604;48.616;9.548;2022-07-04T04:03:58;3.25;;;2.65;;
9138;SDS011;4604;48.616;9.548;2022-07-04T04:06:45;3.65;;;2.90;;
9138;SDS011;4604;48.616;9.548;2022-07-04T04:09:13;2.95;;;2.65;;
9138;SDS011;4604;48.616;9.548;2022-07-04T04:11:42;3.55;;;2.88;;
9138;SDS011;4604;48.616;9.548;2022-07-04T04:14:10;3.17;;;2.50;;
9138;SDS011;4604;48.616;9.548;2022-07-04T04:16:37;10.90;;;2.70;;
9138;SDS011;4604;48.616;9.548;2022-07-04T04:19:04;3.05;;;2.60;;
9138;SDS011;4604;48.616;9.548;2022-07-04T04:21:31;6.00;;;2.63;;
9138;SDS011;4604;48.616;9.548;2022-07-04T04:23:58;4.35;;;2.60;;
9138;SDS011;4604;48.616;9.548;2022-07-04T04:26:26;2.78;;;2.58;;
9138;SDS011;4604;48.616;9.548;2022-07-04T04:28:53;3.85;;;2.70;;
9138;SDS011;4604;48.616;9.548;2022-07-04T04:31:20;3.10;;;2.63;;
9138;SDS011;4604;48.616;9.548;2022-07-04T04:33:47;4.10;;;2.92;;
9138;SDS011;4604;48.616;9.548;2022-07-04T04:36:13;5.50;;;3.00;;
9138;SDS011;4604;48.616;9.548;2022-07-04T04:38:40;3.35;;;2.80;;
9138;SDS011;4604;48.616;9.548;2022-07-04T04:41:07;6.90;;;3.10;;
9138;SDS011;4604;48.616;9.548;2022-07-04T04:43:35;4.43;;;3.15;;
9138;SDS011;4604;48.616;9.548;2022-07-04T04:46:02;5.90;;;2.97;;
9138;SDS011;4604;48.616;9.548;2022-07-04T04:48:29;5.95;;;3.13;;
9138;SDS011;4604;48.616;9.548;2022-07-04T04:50:56;4.90;;;2.83;;
9138;SDS011;4604;48.616;9.548;2022-07-04T04:53:22;4.03;;;3.17;;
9138;SDS011;4604;48.616;9.548;2022-07-04T04:55:50;2.80;;;2.60;;
9138;SDS011;4604;48.616;9.548;2022-07-04T04:58:17;4.55;;;3.10;;
9138;SDS011;4604;48.616;9.548;2022-07-04T05:00:45;3.10;;;2.80;;
9138;SDS011;4604;48.616;9.548;2022-07-04T05:03:13;4.80;;;2.90;;
9138;SDS011;4604;48.616;9.548;2022-07-04T05:05:40;3.20;;;3.00;;
9138;SDS011;4604;48.616;9.548;2022-07-04T05:08:07;4.20;;;3.80;;
9138;SDS011;4604;48.616;9.548;2022-07-04T05:10:34;3.88;;;3.47;;
9138;SDS011;4604;48.616;9.548;2022-07-04T05:13:01;9.40;;;3.20;;
9138;SDS011;4604;48.616;9.548;2022-07-04T05:15:29;3.40;;;3.00;;
9138;SDS011;4604;48.616;9.548;2022-07-04T05:17:57;5.78;;;3.38;;
9138;SDS011;4604;48.616;9.548;2022-07-04T05:20:24;3.50;;;3.20;;
9138;SDS011;4604;48.616;9.548;2022-07-04T05:22:51;3.80;;;3.30;;
9138;SDS011;4604;48.616;9.548;2022-07-04T05:25:18;4.40;;;3.00;;
9138;SDS011;4604;48.616;9.548;2022-07-04T05:31:12;4.10;;;3.17;;
9138;SDS011;4604;48.616;9.548;2022-07-04T05:33:41;2.85;;;2.65;;
9138;SDS011;4604;48.616;9.548;2022-07-04T05:39:31;3.72;;;3.33;;
9138;SDS011;4604;48.616;9.548;2022-07-04T05:45:27;9.80;;;3.08;;
9138;SDS011;4604;48.616;9.548;2022-07-04T05:51:16;3.60;;;2.88;;
9138;SDS011;4604;48.616;9.548;2022-07-04T05:57:07;4.90;;;2.92;;
9138;SDS011;4604;48.616;9.548;2022-07-04T06:02:58;4.93;;;3.00;;
9138;SDS011;4604;48.616;9.548;2022-07-04T06:08:53;3.80;;;3.00;;
9138;SDS011;4604;48.616;9.548;2022-07-04T06:11:20;5.13;;;2.97;;
9138;SDS011;4604;48.616;9.548;2022-07-04T06:13:47;4.45;;;3.13;;
9138;SDS011;4604;48.616;9.548;2022-07-04T06:16:15;9.25;;;3.65;;
9138;SDS011;4604;48.616;9.548;2022-07-04T06:18:43;5.20;;;3.00;;
9138;SDS011;4604;48.616;9.548;2022-07-04T06:24:34;5.68;;;3.03;;
9138;SDS011;4604;48.616;9.548;2022-07-04T06:27:00;3.63;;;2.70;;
9138;SDS011;4604;48.616;9.548;2022-07-04T06:29:28;4.60;;;3.10;;
9138;SDS011;4604;48.616;9.548;2022-07-04T06:31:55;3.97;;;3.20;;
9138;SDS011;4604;48.616;9.548;2022-07-04T06:34:21;5.72;;;3.40;;
9138;SDS011;4604;48.616;9.548;2022-07-04T06:37:06;5.50;;;3.22;;
9138;SDS011;4604;48.616;9.548;2022-07-04T06:39:34;3.92;;;2.63;;
9138;SDS011;4604;48.616;9.548;2022-07-04T06:42:00;4.00;;;3.10;;
9138;SDS011;4604;48.616;9.548;2022-07-04T06:44:27;5.15;;;2.85;;
9138;SDS011;4604;48.616;9.548;2022-07-04T06:46:54;2.50;;;2.30;;
9138;SDS011;4604;48.616;9.548;2022-07-04T06:49:21;4.28;;;3.22;;
9138;SDS011;4604;48.616;9.548;2022-07-04T06:51:47;5.78;;;3.05;;
9138;SDS011;4604;48.616;9.548;2022-07-04T06:54:14;6.50;;;2.60;;
9138;SDS011;4604;48.616;9.548;2022-07-04T06:56:42;5.57;;;3.05;;
9138;SDS011;4604;48.616;9.548;2022-07-04T06:59:09;3.90;;;2.97;;
9138;SDS011;4604;48.616;9.548;2022-07-04T07:01:35;3.97;;;3.05;;
9138;SDS011;4604;48.616;9.548;2022-07-04T07:04:02;9.88;;;2.92;;
9138;SDS011;4604;48.616;9.548;2022-07-04T07:06:29;3.50;;;2.78;;
9138;SDS011;4604;48.616;9.548;2022-07-04T07:08:56;8.93;;;3.63;;
9138;SDS011;4604;48.616;9.548;2022-07-04T07:11:22;2.80;;;2.58;;
9138;SDS011;4604;48.616;9.548;2022-07-04T07:13:52;6.63;;;2.80;;
9138;SDS011;4604;48.616;9.548;2022-07-04T07:16:19;4.05;;;2.90;;
9138;SDS011;4604;48.616;9.548;2022-07-04T07:18:47;4.18;;;2.88;;
9138;SDS011;4604;48.616;9.548;2022-07-04T07:21:15;5.57;;;2.80;;
9138;SDS011;4604;48.616;9.548;2022-07-04T07:23:42;7.53;;;3.35;;
9138;SDS011;4604;48.616;9.548;2022-07-04T07:26:09;4.05;;;2.72;;
9138;SDS011;4604;48.616;9.548;2022-07-04T07:28:37;3.65;;;2.70;;
9138;SDS011;4604;48.616;9.548;2022-07-04T07:31:05;2.90;;;2.50;;
9138;SDS011;4604;48.616;9.548;2022-07-04T07:33:32;3.30;;;2.70;;
9138;SDS011;4604;48.616;9.548;2022-07-04T07:35:58;4.82;;;2.50;;
9138;SDS011;4604;48.616;9.548;2022-07-04T07:38:25;4.18;;;2.67;;
9138;SDS011;4604;48.616;9.548;2022-07-04T07:40:52;8.13;;;2.80;;
9138;SDS011;4604;48.616;9.548;2022-07-04T07:43:18;7.30;;;3.17;;
9138;SDS011;4604;48.616;9.548;2022-07-04T07:45:45;3.72;;;2.50;;
9138;SDS011;4604;48.616;9.548;2022-07-04T07:48:13;2.50;;;2.30;;
9138;SDS011;4604;48.616;9.548;2022-07-04T07:50:40;3.42;;;2.80;;
9138;SDS011;4604;48.616;9.548;2022-07-04T07:53:06;6.22;;;2.72;;
9138;SDS011;4604;48.616;9.548;2022-07-04T07:55:33;4.13;;;2.50;;
9138;SDS011;4604;48.616;9.548;2022-07-04T07:58:00;3.13;;;2.60;;
9138;SDS011;4604;48.616;9.548;2022-07-04T08:03:50;6.18;;;3.05;;
9138;SDS011;4604;48.616;9.548;2022-07-04T08:06:34;4.53;;;2.45;;
9138;SDS011;4604;48.616;9.548;2022-07-04T08:09:01;3.05;;;2.55;;
9138;SDS011;4604;48.616;9.548;2022-07-04T08:11:28;3.63;;;2.78;;
9138;SDS011;4604;48.616;9.548;2022-07-04T08:13:55;4.03;;;2.80;;
9138;SDS011;4604;48.616;9.548;2022-07-04T08:16:21;5.35;;;2.80;;
9138;SDS011;4604;48.616;9.548;2022-07-04T08:18:50;5.45;;;2.60;;
9138;SDS011;4604;48.616;9.548;2022-07-04T08:21:16;4.20;;;2.90;;
9138;SDS011;4604;48.616;9.548;2022-07-04T08:23:43;4.93;;;3.25;;
9138;SDS011;4604;48.616;9.548;2022-07-04T08:26:10;3.58;;;2.90;;
9138;SDS011;4604;48.616;9.548;2022-07-04T08:28:37;8.30;;;3.10;;
9138;SDS011;4604;48.616;9.548;2022-07-04T08:34:30;4.05;;;2.95;;
9138;SDS011;4604;48.616;9.548;2022-07-04T08:36:57;5.35;;;3.42;;
9138;SDS011;4604;48.616;9.548;2022-07-04T08:39:23;3.45;;;3.15;;
9138;SDS011;4604;48.616;9.548;2022-07-04T08:41:50;3.80;;;3.40;;
9138;SDS011;4604;48.616;9.548;2022-07-04T08:44:21;5.03;;;3.08;;
9138;SDS011;4604;48.616;9.548;2022-07-04T08:46:50;3.80;;;3.40;;
9138;SDS011;4604;48.616;9.548;2022-07-04T08:52:42;4.43;;;3.15;;
9138;SDS011;4604;48.616;9.548;2022-07-04T08:58:37;4.80;;;3.25;;
9138;SDS011;4604;48.616;9.548;2022-07-04T09:01:05;5.40;;;2.97;;
9138;SDS011;4604;48.616;9.548;2022-07-04T09:03:33;5.60;;;3.75;;
9138;SDS011;4604;48.616;9.548;2022-07-04T09:06:01;4.72;;;3.63;;
9138;SDS011;4604;48.616;9.548;2022-07-04T09:08:33;6.40;;;3.67;;
9138;SDS011;4604;48.616;9.548;2022-07-04T09:11:00;5.00;;;3.65;;
9138;SDS011;4604;48.616;9.548;2022-07-04T09:13:28;5.55;;;3.28;;
9138;SDS011;4604;48.616;9.548;2022-07-04T09:15:56;3.50;;;3.20;;
9138;SDS011;4604;48.616;9.548;2022-07-04T09:18:23;10.10;;;3.35;;
9138;SDS011;4604;48.616;9.548;2022-07-04T09:20:51;6.70;;;3.30;;
9138;SDS011;4604;48.616;9.548;2022-07-04T09:23:20;4.22;;;3.38;;
9138;SDS011;4604;48.616;9.548;2022-07-04T09:25:49;4.30;;;3.17;;
9138;SDS011;4604;48.616;9.548;2022-07-04T09:28:33;5.70;;;2.83;;
9138;SDS011;4604;48.616;9.548;2022-07-04T09:31:00;5.43;;;3.30;;
9138;SDS011;4604;48.616;9.548;2022-07-04T09:36:18;3.60;;;3.10;;
9138;SDS011;4604;48.616;9.548;2022-07-04T09:38:46;6.40;;;3.50;;
9138;SDS011;4604;48.616;9.548;2022-07-04T09:41:32;3.88;;;3.40;;
9138;SDS011;4604;48.616;9.548;2022-07-04T09:44:16;5.47;;;3.15;;
9138;SDS011;4604;48.616;9.548;2022-07-04T09:46:43;7.65;;;3.00;;
9138;SDS011;4604;48.616;9.548;2022-07-04T09:49:10;3.63;;;3.22;;
9138;SDS011;4604;48.616;9.548;2022-07-04T09:51:38;5.25;;;3.40;;
9138;SDS011;4604;48.616;9.548;2022-07-04T09:54:18;4.75;;;3.40;;
9138;SDS011;4604;48.616;9.548;2022-07-04T09:56:56;7.05;;;3.67;;
9138;SDS011;4604;48.616;9.548;2022-07-04T09:59:24;4.25;;;3.60;;
9138;SDS011;4604;48.616;9.548;2022-07-04T10:01:56;4.32;;;3.05;;
9138;SDS011;4604;48.616;9.548;2022-07-04T10:04:40;5.53;;;3.40;;
9138;SDS011;4604;48.616;9.548;2022-07-04T10:07:11;4.57;;;3.63;;
9138;SDS011;4604;48.616;9.548;2022-07-04T10:09:55;4.47;;;3.40;;
9138;SDS011;4604;48.616;9.548;2022-07-04T10:12:27;4.30;;;3.45;;
9138;SDS011;4604;48.616;9.548;2022-07-04T10:14:55;6.63;;;3.30;;
9138;SDS011;4604;48.616;9.548;2022-07-04T10:17:22;4.78;;;3.20;;
9138;SDS011;4604;48.616;9.548;2022-07-04T10:19:48;5.18;;;3.20;;
9138;SDS011;4604;48.616;9.548;2022-07-04T10:25:41;7.03;;;3.53;;
9138;SDS011;4604;48.616;9.548;2022-07-04T10:31:32;3.55;;;3.25;;
9138;SDS011;4604;48.616;9.548;2022-07-04T10:34:00;7.60;;;3.17;;
9138;SDS011;4604;48.616;9.548;2022-07-04T10:36:28;3.65;;;3.10;;
9138;SDS011;4604;48.616;9.548;2022-07-04T10:38:57;3.72;;;3.42;;
9138;SDS011;4604;48.616;9.548;2022-07-04T10:41:25;4.00;;;3.60;;
9138;SDS011;4604;48.616;9.548;2022-07-04T10:43:54;4.72;;;3.22;;
9138;SDS011;4604;48.616;9.548;2022-07-04T10:46:45;5.40;;;3.33;;
9138;SDS011;4604;48.616;9.548;2022-07-04T10:49:23;3.78;;;3.05;;
9138;SDS011;4604;48.616;9.548;2022-07-04T10:51:53;2.88;;;2.67;;
9138;SDS011;4604;48.616;9.548;2022-07-04T10:54:27;2.85;;;2.65;;
9138;SDS011;4604;48.616;9.548;2022-07-04T10:56:56;5.22;;;2.83;;
9138;SDS011;4604;48.616;9.548;2022-07-04T11:00:03;3.97;;;2.95;;
9138;SDS011;4604;48.616;9.548;2022-07-04T11:05:55;6.00;;;2.97;;
9138;SDS011;4604;48.616;9.548;2022-07-04T11:08:22;4.93;;;3.17;;
9138;SDS011;4604;48.616;9.548;2022-07-04T11:10:49;2.70;;;2.50;;
9138;SDS011;4604;48.616;9.548;2022-07-04T11:13:30;5.68;;;2.78;;
9138;SDS011;4604;48.616;9.548;2022-07-04T11:16:00;3.42;;;3.08;;
9138;SDS011;4604;48.616;9.548;2022-07-04T11:18:38;2.85;;;2.65;;
9138;SDS011;4604;48.616;9.548;2022-07-04T11:23:55;3.08;;;2.80;;
9138;SDS011;4604;48.616;9.548;2022-07-04T11:26:22;3.63;;;3.00;;
9138;SDS011;4604;48.616;9.548;2022-07-04T11:28:50;4.35;;;2.75;;
9138;SDS011;4604;48.616;9.548;2022-07-04T11:31:16;6.10;;;3.00;;
9138;SDS011;4604;48.616;9.548;2022-07-04T11:33:44;4.13;;;2.92;;
9138;SDS011;4604;48.616;9.548;2022-07-04T11:36:12;3.95;;;2.60;;
9138;SDS011;4604;48.616;9.548;2022-07-04T11:38:47;5.55;;;2.33;;
9138;SDS011;4604;48.616;9.548;2022-07-04T11:41:19;5.60;;;2.42;;
9138;SDS011;4604;48.616;9.548;2022-07-04T11:44:05;3.00;;;2.60;;
9138;SDS011;4604;48.616;9.548;2022-07-04T11:46:47;3.13;;;2.72;;
9138;SDS011;4604;48.616;9.548;2022-07-04T11:49:13;4.32;;;2.50;;
9138;SDS011;4604;48.616;9.548;2022-07-04T11:51:43;3.97;;;2.58;;
9138;SDS011;4604;48.616;9.548;2022-07-04T11:54:14;5.95;;;2.97;;
9138;SDS011;4604;48.616;9.548;2022-07-04T11:56:40;3.10;;;2.65;;
9138;SDS011;4604;48.616;9.548;2022-07-04T11:59:11;3.28;;;2.50;;
9138;SDS011;4604;48.616;9.548;2022-07-04T12:01:39;2.88;;;2.67;;
9138;SDS011;4604;48.616;9.548;2022-07-04T12:04:13;2.92;;;2.65;;
9138;SDS011;4604;48.616;9.548;2022-07-04T12:06:41;4.03;;;2.70;;
9138;SDS011;4604;48.616;9.548;2022-07-04T12:09:08;4.10;;;2.95;;
9138;SDS011;4604;48.616;9.548;2022-07-04T12:11:55;2.92;;;2.50;;
9138;SDS011;4604;48.616;9.548;2022-07-04T12:14:23;3.97;;;2.78;;
9138;SDS011;4604;48.616;9.548;2022-07-04T12:19:51;3.75;;;2.83;;
9138;SDS011;4604;48.616;9.548;2022-07-04T12:22:25;3.03;;;2.83;;
9138;SDS011;4604;48.616;9.548;2022-07-04T12:24:57;8.65;;;3.10;;
9138;SDS011;4604;48.616;9.548;2022-07-04T12:27:25;4.30;;;3.10;;
9138;SDS011;4604;48.616;9.548;2022-07-04T12:29:54;3.90;;;2.92;;
9138;SDS011;4604;48.616;9.548;2022-07-04T12:32:21;2.97;;;2.63;;
9138;SDS011;4604;48.616;9.548;2022-07-04T12:34:48;4.20;;;3.22;;
9138;SDS011;4604;48.616;9.548;2022-07-04T12:37:16;3.88;;;3.33;;
9138;SDS011;4604;48.616;9.548;2022-07-04T12:39:43;6.13;;;3.08;;
9138;SDS011;4604;48.616;9.548;2022-07-04T12:42:11;3.97;;;3.00;;
9138;SDS011;4604;48.616;9.548;2022-07-04T12:44:41;3.38;;;3.08;;
9138;SDS011;4604;48.616;9.548;2022-07-04T12:47:10;3.53;;;3.10;;
9138;SDS011;4604;48.616;9.548;2022-07-04T12:49:41;7.50;;;2.85;;
9138;SDS011;4604;48.616;9.548;2022-07-04T12:52:10;4.28;;;3.95;;
9138;SDS011;4604;48.616;9.548;2022-07-04T12:54:39;3.47;;;3.17;;
9138;SDS011;4604;48.616;9.548;2022-07-04T12:57:08;4.05;;;2.88;;
9138;SDS011;4604;48.616;9.548;2022-07-04T12:59:36;4.30;;;2.75;;
9138;SDS011;4604;48.616;9.548;2022-07-04T13:02:05;3.65;;;2.80;;
9138;SDS011;4604;48.616;9.548;2022-07-04T13:04:33;3.53;;;2.83;;
9138;SDS011;4604;48.616;9.548;2022-07-04T13:07:00;3.20;;;2.88;;
9138;SDS011;4604;48.616;9.548;2022-07-04T13:09:39;4.22;;;3.00;;
9138;SDS011;4604;48.616;9.548;2022-07-04T13:12:07;6.93;;;3.00;;
9138;SDS011;4604;48.616;9.548;2022-07-04T13:14:53;3.53;;;3.17;;
9138;SDS011;4604;48.616;9.548;2022-07-04T13:17:23;4.00;;;2.97;;
9138;SDS011;4604;48.616;9.548;2022-07-04T13:19:50;3.17;;;2.83;;
9138;SDS011;4604;48.616;9.548;2022-07-04T13:22:18;3.28;;;2.97;;
9138;SDS011;4604;48.616;9.548;2022-07-04T13:24:46;3.10;;;2.60;;
9138;SDS011;4604;48.616;9.548;2022-07-04T13:27:12;3.03;;;2.63;;
9138;SDS011;4604;48.616;9.548;2022-07-04T13:29:39;2.67;;;2.47;;
9138;SDS011;4604;48.616;9.548;2022-07-04T13:32:06;3.10;;;2.50;;
9138;SDS011;4604;48.616;9.548;2022-07-04T13:34:35;4.35;;;2.70;;
9138;SDS011;4604;48.616;9.548;2022-07-04T13:37:02;4.70;;;3.10;;
9138;SDS011;4604;48.616;9.548;2022-07-04T13:39:29;5.72;;;2.75;;
9138;SDS011;4604;48.616;9.548;2022-07-04T13:41:56;2.80;;;2.60;;
9138;SDS011;4604;48.616;9.548;2022-07-04T13:44:23;3.58;;;2.45;;
9138;SDS011;4604;48.616;9.548;2022-07-04T13:46:50;2.70;;;2.50;;
9138;SDS011;4604;48.616;9.548;2022-07-04T13:49:16;3.10;;;2.80;;
9138;SDS011;4604;48.616;9.548;2022-07-04T13:51:44;3.33;;;2.50;;
9138;SDS011;4604;48.616;9.548;2022-07-04T13:54:11;3.80;;;2.70;;
9138;SDS011;4604;48.616;9.548;2022-07-04T13:56:38;2.80;;;2.53;;
9138;SDS011;4604;48.616;9.548;2022-07-04T13:59:06;4.05;;;2.67;;
9138;SDS011;4604;48.616;9.548;2022-07-04T14:01:32;5.20;;;2.65;;
9138;SDS011;4604;48.616;9.548;2022-07-04T14:03:59;3.58;;;2.65;;
9138;SDS011;4604;48.616;9.548;2022-07-04T14:06:26;3.05;;;2.67;;
9138;SDS011;4604;48.616;9.548;2022-07-04T14:08:54;3.03;;;2.60;;
9138;SDS011;4604;48.616;9.548;2022-07-04T14:11:21;2.90;;;2.65;;
9138;SDS011;4604;48.616;9.548;2022-07-04T14:13:48;2.90;;;2.60;;
9138;SDS011;4604;48.616;9.548;2022-07-04T14:16:15;4.30;;;2.58;;
9138;SDS011;4604;48.616;9.548;2022-07-04T14:18:42;5.28;;;2.60;;
9138;SDS011;4604;48.616;9.548;2022-07-04T14:21:09;4.85;;;2.70;;
9138;SDS011;4604;48.616;9.548;2022-07-04T14:23:36;3.72;;;2.60;;
9138;SDS011;4604;48.616;9.548;2022-07-04T14:26:12;4.20;;;2.50;;
9138;SDS011;4604;48.616;9.548;2022-07-04T14:28:41;2.53;;;2.33;;
9138;SDS011;4604;48.616;9.548;2022-07-04T14:31:09;2.95;;;2.65;;
9138;SDS011;4604;48.616;9.548;2022-07-04T14:33:36;3.42;;;2.58;;
9138;SDS011;4604;48.616;9.548;2022-07-04T14:36:04;6.32;;;2.67;;
9138;SDS011;4604;48.616;9.548;2022-07-04T14:38:32;2.95;;;2.58;;
9138;SDS011;4604;48.616;9.548;2022-07-04T14:40:59;3.60;;;2.95;;
9138;SDS011;4604;48.616;9.548;2022-07-04T14:43:37;4.13;;;2.55;;
9138;SDS011;4604;48.616;9.548;2022-07-04T14:46:05;3.10;;;2.80;;
9138;SDS011;4604;48.616;9.548;2022-07-04T14:48:32;3.50;;;2.58;;
9138;SDS011;4604;48.616;9.548;2022-07-04T14:50:59;4.43;;;2.80;;
9138;SDS011;4604;48.616;9.548;2022-07-04T14:53:25;2.97;;;2.60;;
9138;SDS011;4604;48.616;9.548;2022-07-04T14:55:52;3.10;;;2.42;;
9138;SDS011;4604;48.616;9.548;2022-07-04T14:58:19;4.47;;;3.00;;
9138;SDS011;4604;48.616;9.548;2022-07-04T15:00:48;3.35;;;2.80;;
9138;SDS011;4604;48.616;9.548;2022-07-04T15:03:15;3.25;;;2.80;;
9138;SDS011;4604;48.616;9.548;2022-07-04T15:05:42;3.35;;;2.50;;
9138;SDS011;4604;48.616;9.548;2022-07-04T15:08:09;6.57;;;2.70;;
9138;SDS011;4604;48.616;9.548;2022-07-04T15:10:36;9.38;;;2.55;;
9138;SDS011;4604;48.616;9.548;2022-07-04T15:13:03;4.18;;;2.60;;
9138;SDS011;4604;48.616;9.548;2022-07-04T15:15:29;3.17;;;2.40;;
9138;SDS011;4604;48.616;9.548;2022-07-04T15:17:58;4.40;;;2.75;;
9138;SDS011;4604;48.616;9.548;2022-07-04T15:20:24;3.88;;;2.50;;
9138;SDS011;4604;48.616;9.548;2022-07-04T15:23:09;5.30;;;2.85;;
9138;SDS011;4604;48.616;9.548;2022-07-04T15:25:53;2.45;;;2.20;;
9138;SDS011;4604;48.616;9.548;2022-07-04T15:28:19;2.50;;;2.30;;
9138;SDS011;4604;48.616;9.548;2022-07-04T15:30:46;4.28;;;2.38;;
9138;SDS011;4604;48.616;9.548;2022-07-04T15:33:14;2.70;;;2.35;;
9138;SDS011;4604;48.616;9.548;2022-07-04T15:35:41;3.42;;;2.42;;
9138;SDS011;4604;48.616;9.548;2022-07-04T15:38:08;3.45;;;2.45;;
9138;SDS011;4604;48.616;9.548;2022-07-04T15:40:35;7.22;;;2.42;;
9138;SDS011;4604;48.616;9.548;2022-07-04T15:43:02;4.85;;;2.25;;
9138;SDS011;4604;48.616;9.548;2022-07-04T15:45:29;2.67;;;2.40;;
9138;SDS011;4604;48.616;9.548;2022-07-04T15:47:55;2.45;;;2.25;;
9138;SDS011;4604;48.616;9.548;2022-07-04T15:50:24;3.30;;;2.35;;
9138;SDS011;4604;48.616;9.548;2022-07-04T15:52:53;2.55;;;2.35;;
9138;SDS011;4604;48.616;9.548;2022-07-04T15:55:20;2.53;;;2.33;;
9138;SDS011;4604;48.616;9.548;2022-07-04T15:57:46;3.22;;;2.38;;
9138;SDS011;4604;48.616;9.548;2022-07-04T16:00:14;2.53;;;2.20;;
9138;SDS011;4604;48.616;9.548;2022-07-04T16:02:42;2.88;;;2.40;;
9138;SDS011;4604;48.616;9.548;2022-07-04T16:05:08;3.53;;;2.67;;
9138;SDS011;4604;48.616;9.548;2022-07-04T16:07:37;2.40;;;2.20;;
9138;SDS011;4604;48.616;9.548;2022-07-04T16:10:04;2.88;;;2.35;;
9138;SDS011;4604;48.616;9.548;2022-07-04T16:12:32;4.20;;;2.28;;
9138;SDS011;4604;48.616;9.548;2022-07-04T16:14:59;4.50;;;2.40;;
9138;SDS011;4604;48.616;9.548;2022-07-04T16:17:25;4.38;;;2.30;;
9138;SDS011;4604;48.616;9.548;2022-07-04T16:19:52;2.65;;;2.20;;
9138;SDS011;4604;48.616;9.548;2022-07-04T16:22:19;5.32;;;2.50;;